createdAt,value
2023-02-19T00:02:52.404Z,8.06
2023-02-19T00:07:48.723Z,8.06
2023-02-19T00:12:45.012Z,8.01
2023-02-19T00:17:41.289Z,7.96
2023-02-19T00:22:37.593Z,7.94
2023-02-19T00:27:33.913Z,7.93
2023-02-19T00:32:30.738Z,7.93
2023-02-19T00:37:27.016Z,7.95
2023-02-19T00:42:23.326Z,7.97
2023-02-19T00:47:19.613Z,8.01
2023-02-19T00:52:15.907Z,8.03
2023-02-19T00:57:12.193Z,8.05
2023-02-19T01:02:08.516Z,8.06
2023-02-19T01:07:04.909Z,8.07
2023-02-19T01:12:01.197Z,8.12
2023-02-19T01:16:57.576Z,8.16
2023-02-19T01:21:53.924Z,8.26
2023-02-19T01:26:50.262Z,8.30
2023-02-19T01:31:46.777Z,8.41
2023-02-19T01:36:43.176Z,8.42
2023-02-19T01:41:41.412Z,8.43
2023-02-19T01:46:40.341Z,8.44
2023-02-19T01:51:41.434Z,8.53
2023-02-19T01:56:40.716Z,8.57
2023-02-19T02:01:39.126Z,8.60
2023-02-19T02:06:43.034Z,8.60
2023-02-19T02:11:47.739Z,8.57
2023-02-19T02:17:11.893Z,8.59
2023-02-19T02:22:20.743Z,8.58
2023-02-19T02:27:30.678Z,8.58
2023-02-19T02:32:35.322Z,8.54
2023-02-19T02:37:36.031Z,8.54
2023-02-19T02:42:34.184Z,8.51
2023-02-19T02:47:42.888Z,8.50
2023-02-19T02:53:03.153Z,8.46
2023-02-19T02:57:59.574Z,8.47
2023-02-19T03:02:56.506Z,8.45
2023-02-19T03:08:11.935Z,8.44
2023-02-19T03:13:32.068Z,8.39
2023-02-19T03:18:51.095Z,8.42
2023-02-19T03:24:07.484Z,8.42
2023-02-19T03:29:23.169Z,8.40
2023-02-19T03:34:43.924Z,8.39
2023-02-19T03:39:46.557Z,8.40
2023-02-19T03:45:01.773Z,8.37
2023-02-19T03:50:44.201Z,8.39
2023-02-19T03:56:00.343Z,8.38
2023-02-19T04:01:10.247Z,8.33
2023-02-19T04:06:14.387Z,8.29
2023-02-19T04:11:12.057Z,8.28
2023-02-19T04:16:12.840Z,8.28
2023-02-19T04:21:10.297Z,8.27
2023-02-19T04:26:08.269Z,8.28
2023-02-19T04:31:04.841Z,8.28
2023-02-19T04:36:01.382Z,8.25
2023-02-19T04:40:57.836Z,8.24
2023-02-19T04:45:54.209Z,8.28
2023-02-19T04:50:50.549Z,8.26
2023-02-19T04:55:48.081Z,8.22
2023-02-19T05:00:44.432Z,8.21
2023-02-19T05:05:40.797Z,8.21
2023-02-19T05:10:37.090Z,8.17
2023-02-19T05:15:33.659Z,8.16
2023-02-19T05:20:30.028Z,8.12
2023-02-19T05:25:26.403Z,8.13
2023-02-19T05:30:22.731Z,8.11
2023-02-19T05:35:19.076Z,8.05
2023-02-19T05:40:15.477Z,7.98
2023-02-19T05:45:11.764Z,7.90
2023-02-19T05:50:08.165Z,7.82
2023-02-19T05:55:04.712Z,7.80
2023-02-19T06:00:01.031Z,7.77
2023-02-19T06:04:57.348Z,7.72
2023-02-19T06:09:53.746Z,7.67
2023-02-19T06:14:50.601Z,7.64
2023-02-19T06:19:46.931Z,7.62
2023-02-19T06:24:43.251Z,7.62
2023-02-19T06:29:39.919Z,7.59
2023-02-19T06:34:36.694Z,7.57
2023-02-19T06:39:33.019Z,7.58
2023-02-19T06:44:29.365Z,7.56
2023-02-19T06:49:25.743Z,7.50
2023-02-19T06:54:22.206Z,7.47
2023-02-19T06:59:18.596Z,6.68
2023-02-19T07:04:15.913Z,6.10
2023-02-19T07:09:12.396Z,5.66
2023-02-19T07:14:17.273Z,5.38
2023-02-19T07:19:15.367Z,5.22
2023-02-19T07:24:11.754Z,5.16
2023-02-19T07:29:09.645Z,5.05
2023-02-19T07:34:07.165Z,4.96
2023-02-19T07:39:04.717Z,4.95
2023-02-19T07:44:01.105Z,4.96
2023-02-19T07:48:59.271Z,4.85
2023-02-19T07:53:55.889Z,4.86
2023-02-19T07:58:52.255Z,4.96
2023-02-19T08:03:50.461Z,4.89
2023-02-19T08:08:46.954Z,5.02
2023-02-19T08:13:43.276Z,5.05
2023-02-19T08:18:39.655Z,5.04
2023-02-19T08:23:36.115Z,5.05
2023-02-19T08:28:33.184Z,5.21
2023-02-19T08:33:30.488Z,5.03
2023-02-19T08:38:26.813Z,5.30
2023-02-19T08:43:23.363Z,5.35
2023-02-19T08:48:19.712Z,5.22
2023-02-19T08:53:16.048Z,5.25
2023-02-19T08:58:12.382Z,5.24
2023-02-19T09:03:09.173Z,5.15
2023-02-19T09:08:05.553Z,5.00
2023-02-19T09:13:02.608Z,4.88
2023-02-19T09:17:59.861Z,5.16
2023-02-19T09:22:57.446Z,5.17
2023-02-19T09:27:57.261Z,5.37
2023-02-19T09:32:53.948Z,5.81
2023-02-19T09:37:50.266Z,5.75
2023-02-19T09:42:47.817Z,5.11
2023-02-19T09:47:44.346Z,5.50
2023-02-19T09:52:51.291Z,5.12
2023-02-19T09:57:48.539Z,4.97
2023-02-19T10:02:44.935Z,5.11
2023-02-19T10:07:47.080Z,4.93
2023-02-19T10:12:47.919Z,4.96
2023-02-19T10:17:44.378Z,5.34
2023-02-19T10:22:40.759Z,5.51
2023-02-19T10:27:37.089Z,5.50
2023-02-19T10:32:33.572Z,5.71
2023-02-19T10:37:30.133Z,5.44
2023-02-19T10:42:26.646Z,5.32
2023-02-19T10:47:26.329Z,5.82
2023-02-19T10:52:32.652Z,6.12
2023-02-19T10:57:31.243Z,5.90
2023-02-19T11:02:29.003Z,6.44
2023-02-19T11:07:25.359Z,6.76
2023-02-19T11:12:28.214Z,7.14
2023-02-19T11:17:27.594Z,7.33
2023-02-19T11:22:40.684Z,7.32
2023-02-19T11:27:54.085Z,7.45
2023-02-19T11:32:50.386Z,7.02
2023-02-19T11:37:54.199Z,6.88
2023-02-19T11:43:05.673Z,7.01
2023-02-19T11:48:07.533Z,7.58
2023-02-19T11:53:27.818Z,7.36
2023-02-19T11:59:01.741Z,7.48
2023-02-19T12:04:16.716Z,7.91
2023-02-19T12:09:37.289Z,8.35
2023-02-19T12:14:45.252Z,8.78
2023-02-19T12:19:58.739Z,8.27
2023-02-19T12:25:19.373Z,7.61
2023-02-19T12:30:54.572Z,7.49
2023-02-19T12:36:16.315Z,7.03
2023-02-19T12:41:25.942Z,6.86
2023-02-19T12:46:32.117Z,6.92
2023-02-19T12:51:45.100Z,7.53
2023-02-19T12:56:48.820Z,7.59
2023-02-19T13:02:00.127Z,7.95
2023-02-19T13:07:02.421Z,8.60
2023-02-19T13:12:04.361Z,8.04
2023-02-19T13:17:10.619Z,7.80
2023-02-19T13:22:48.685Z,8.18
2023-02-19T13:28:02.506Z,7.84
2023-02-19T13:33:06.646Z,7.75
2023-02-19T13:43:13.828Z,7.56
2023-02-19T13:48:38.889Z,7.30
2023-02-19T13:53:51.759Z,7.14
2023-02-19T13:58:56.717Z,7.05
2023-02-19T14:04:10.353Z,7.02
2023-02-19T14:09:43.915Z,6.90
2023-02-19T14:14:56.589Z,7.03
2023-02-19T14:20:01.327Z,7.26
2023-02-19T14:24:58.145Z,7.12
2023-02-19T14:29:54.769Z,7.16
2023-02-19T14:34:51.209Z,7.06
2023-02-19T14:39:48.397Z,6.94
2023-02-19T14:44:52.250Z,7.00
2023-02-19T14:49:54.015Z,6.76
2023-02-19T14:54:59.220Z,6.55
2023-02-19T15:00:00.615Z,6.59
2023-02-19T15:04:57.382Z,6.54
2023-02-19T15:09:57.504Z,6.61
2023-02-19T15:14:59.105Z,6.77
2023-02-19T15:19:58.311Z,6.88
2023-02-19T15:24:55.524Z,6.90
2023-02-19T15:29:53.889Z,6.83
2023-02-19T15:35:02.831Z,6.68
2023-02-19T15:40:02.844Z,6.61
2023-02-19T15:45:11.511Z,6.67
2023-02-19T15:50:13.802Z,6.87
2023-02-19T15:55:21.627Z,6.81
2023-02-19T16:00:24.655Z,6.77
2023-02-19T16:05:26.699Z,6.63
2023-02-19T16:10:25.265Z,6.40
2023-02-19T16:15:21.743Z,6.25
2023-02-19T16:20:26.434Z,6.21
2023-02-19T16:25:29.653Z,6.16
2023-02-19T16:30:33.687Z,6.17
2023-02-19T16:35:39.664Z,6.17
2023-02-19T16:40:48.074Z,6.15
2023-02-19T16:45:45.800Z,6.19
2023-02-19T16:50:42.364Z,6.09
2023-02-19T16:55:38.718Z,5.98
2023-02-19T17:00:35.409Z,5.96
2023-02-19T17:05:32.548Z,5.92
2023-02-19T17:10:28.965Z,5.77
2023-02-19T17:15:25.322Z,5.72
2023-02-19T17:20:29.427Z,5.70
2023-02-19T17:25:25.815Z,5.61
2023-02-19T17:30:28.190Z,5.53
2023-02-19T17:35:25.179Z,5.41
2023-02-19T17:40:32.876Z,5.39
2023-02-19T17:45:30.203Z,5.36
2023-02-19T17:50:29.988Z,5.34
2023-02-19T17:55:26.682Z,5.33
2023-02-19T18:00:28.962Z,5.32
2023-02-19T18:05:25.373Z,5.29
2023-02-19T18:10:23.471Z,5.31
2023-02-19T18:15:23.026Z,5.29
2023-02-19T18:20:24.054Z,5.31
2023-02-19T18:25:21.794Z,5.30
2023-02-19T18:30:20.595Z,5.31
2023-02-19T18:35:19.456Z,5.31
2023-02-19T18:40:15.832Z,5.31
2023-02-19T18:45:12.507Z,5.31
2023-02-19T18:50:09.842Z,5.30
2023-02-19T18:55:06.713Z,5.31
2023-02-19T19:00:06.297Z,5.33
2023-02-19T19:05:02.823Z,5.32
2023-02-19T19:09:59.315Z,5.37
2023-02-19T19:14:55.854Z,5.38
2023-02-19T19:19:52.200Z,5.35
2023-02-19T19:24:48.850Z,5.39
2023-02-19T19:29:47.249Z,5.40
2023-02-19T19:34:43.963Z,5.43
2023-02-19T19:39:42.774Z,5.43
2023-02-19T19:44:39.313Z,5.38
2023-02-19T19:49:35.748Z,5.36
2023-02-19T19:54:32.145Z,5.33
2023-02-19T19:59:28.480Z,5.26
2023-02-19T20:04:25.596Z,5.23
2023-02-19T20:09:25.501Z,5.23
2023-02-19T20:14:23.765Z,5.21
2023-02-19T20:19:20.938Z,5.20
2023-02-19T20:24:20.459Z,5.19
2023-02-19T20:29:17.260Z,5.18
2023-02-19T20:34:13.653Z,5.18
2023-02-19T20:39:10.140Z,5.18
2023-02-19T20:44:06.492Z,5.17
2023-02-19T20:49:02.837Z,5.19
2023-02-19T20:53:59.249Z,5.25
2023-02-19T20:58:55.583Z,5.27
2023-02-19T21:03:51.920Z,5.25
2023-02-19T21:08:48.284Z,5.22
2023-02-19T21:13:44.642Z,5.20
2023-02-19T21:18:41.417Z,5.20
2023-02-19T21:23:37.836Z,5.21
2023-02-19T21:28:34.180Z,5.22
2023-02-19T21:33:30.643Z,5.24
2023-02-19T21:38:27.058Z,5.25
2023-02-19T21:43:23.427Z,5.25
2023-02-19T21:48:19.804Z,5.28
2023-02-19T21:53:16.419Z,5.25
2023-02-19T21:58:12.770Z,5.26
2023-02-19T22:03:15.989Z,5.41
2023-02-19T22:08:15.488Z,5.41
2023-02-19T22:13:11.884Z,5.39
2023-02-19T22:18:08.246Z,5.35
2023-02-19T22:23:05.230Z,5.35
2023-02-19T22:28:03.747Z,5.31
2023-02-19T22:33:00.218Z,5.32
2023-02-19T22:37:56.658Z,5.32
2023-02-19T22:42:53.115Z,5.30
2023-02-19T22:47:49.523Z,5.26
2023-02-19T22:52:45.905Z,5.25
2023-02-19T22:57:42.288Z,5.22
2023-02-19T23:02:38.630Z,5.21
2023-02-19T23:07:35.005Z,5.19
2023-02-19T23:12:31.368Z,5.18
2023-02-19T23:17:27.822Z,5.16
2023-02-19T23:22:24.419Z,5.11
2023-02-19T23:27:21.181Z,5.07
2023-02-19T23:32:20.903Z,5.07
2023-02-19T23:37:17.678Z,5.04
2023-02-19T23:42:19.208Z,5.01
2023-02-19T23:47:15.759Z,4.97
2023-02-19T23:52:12.088Z,4.94
2023-02-19T23:57:08.504Z,4.94
